sensor_id;sensor_type;location;lat;lon;timestamp;temperature;humidity
11079;DHT22;5592;49.234;7.268;2023-11-21T00:02:12;8.50;99.90
11079;DHT22;5592;49.234;7.268;2023-11-21T00:04:37;8.50;99.90
11079;DHT22;5592;49.234;7.268;2023-11-21T00:07:03;8.50;99.90
11079;DHT22;5592;49.234;7.268;2023-11-21T00:09:29;8.50;99.90
11079;DHT22;5592;49.234;7.268;2023-11-21T00:11:54;8.50;99.90
11079;DHT22;5592;49.234;7.268;2023-11-21T00:14:20;8.50;99.90
11079;DHT22;5592;49.234;7.268;2023-11-21T00:16:45;8.50;99.90
11079;DHT22;5592;49.234;7.268;2023-11-21T00:19:11;8.50;99.90
11079;DHT22;5592;49.234;7.268;2023-11-21T00:21:37;8.60;99.90
11079;DHT22;5592;49.234;7.268;2023-11-21T00:24:03;8.60;99.90
11079;DHT22;5592;49.234;7.268;2023-11-21T00:26:29;8.60;99.90
11079;DHT22;5592;49.234;7.268;2023-11-21T00:28:56;8.60;99.90
11079;DHT22;5592;49.234;7.268;2023-11-21T00:31:22;8.60;99.90
11079;DHT22;5592;49.234;7.268;2023-11-21T00:33:48;8.60;99.90
11079;DHT22;5592;49.234;7.268;2023-11-21T00:36:13;8.60;99.90
11079;DHT22;5592;49.234;7.268;2023-11-21T00:38:39;8.60;99.90
11079;DHT22;5592;49.234;7.268;2023-11-21T00:41:05;8.60;99.90
11079;DHT22;5592;49.234;7.268;2023-11-21T00:43:31;8.50;99.90
11079;DHT22;5592;49.234;7.268;2023-11-21T00:45:59;8.60;99.90
11079;DHT22;5592;49.234;7.268;2023-11-21T00:48:24;8.60;99.90
11079;DHT22;5592;49.234;7.268;2023-11-21T00:50:50;8.60;99.90
11079;DHT22;5592;49.234;7.268;2023-11-21T00:53:15;8.60;99.90
11079;DHT22;5592;49.234;7.268;2023-11-21T00:55:47;8.60;99.90
11079;DHT22;5592;49.234;7.268;2023-11-21T00:58:13;8.60;99.90
11079;DHT22;5592;49.234;7.268;2023-11-21T01:00:38;8.60;99.90
11079;DHT22;5592;49.234;7.268;2023-11-21T01:03:05;8.60;99.90
11079;DHT22;5592;49.234;7.268;2023-11-21T01:05:30;8.60;99.90
11079;DHT22;5592;49.234;7.268;2023-11-21T01:07:56;8.60;99.90
11079;DHT22;5592;49.234;7.268;2023-11-21T01:10:21;8.60;99.90
11079;DHT22;5592;49.234;7.268;2023-11-21T01:12:47;8.60;99.90
11079;DHT22;5592;49.234;7.268;2023-11-21T01:15:14;8.60;99.90
11079;DHT22;5592;49.234;7.268;2023-11-21T01:17:39;8.60;99.90
11079;DHT22;5592;49.234;7.268;2023-11-21T01:20:06;8.60;99.90
11079;DHT22;5592;49.234;7.268;2023-11-21T01:22:38;8.70;99.90
11079;DHT22;5592;49.234;7.268;2023-11-21T01:25:04;8.60;99.90
11079;DHT22;5592;49.234;7.268;2023-11-21T01:27:36;8.60;99.90
11079;DHT22;5592;49.234;7.268;2023-11-21T01:30:02;8.60;99.90
11079;DHT22;5592;49.234;7.268;2023-11-21T01:32:28;8.60;99.90
11079;DHT22;5592;49.234;7.268;2023-11-21T01:34:54;8.60;99.90
11079;DHT22;5592;49.234;7.268;2023-11-21T01:37:25;8.60;99.90
11079;DHT22;5592;49.234;7.268;2023-11-21T01:39:53;8.60;99.90
11079;DHT22;5592;49.234;7.268;2023-11-21T01:42:20;8.60;99.90
11079;DHT22;5592;49.234;7.268;2023-11-21T01:44:46;8.60;99.90
11079;DHT22;5592;49.234;7.268;2023-11-21T01:47:12;8.60;99.90
11079;DHT22;5592;49.234;7.268;2023-11-21T01:49:38;8.60;99.90
11079;DHT22;5592;49.234;7.268;2023-11-21T01:52:04;8.60;99.90
11079;DHT22;5592;49.234;7.268;2023-11-21T01:54:31;8.60;99.90
11079;DHT22;5592;49.234;7.268;2023-11-21T01:56:58;8.60;99.90
11079;DHT22;5592;49.234;7.268;2023-11-21T01:59:33;8.70;99.90
11079;DHT22;5592;49.234;7.268;2023-11-21T02:01:59;8.60;99.90
11079;DHT22;5592;49.234;7.268;2023-11-21T02:04:25;8.70;99.90
11079;DHT22;5592;49.234;7.268;2023-11-21T02:06:50;8.70;99.90
11079;DHT22;5592;49.234;7.268;2023-11-21T02:09:16;8.70;99.90
11079;DHT22;5592;49.234;7.268;2023-11-21T02:11:43;8.70;99.90
11079;DHT22;5592;49.234;7.268;2023-11-21T02:14:09;8.60;99.90
11079;DHT22;5592;49.234;7.268;2023-11-21T02:16:35;8.60;99.90
11079;DHT22;5592;49.234;7.268;2023-11-21T02:19:02;8.60;99.90
11079;DHT22;5592;49.234;7.268;2023-11-21T02:21:32;8.60;99.90
11079;DHT22;5592;49.234;7.268;2023-11-21T02:23:57;8.60;99.90
11079;DHT22;5592;49.234;7.268;2023-11-21T02:26:24;8.60;99.90
11079;DHT22;5592;49.234;7.268;2023-11-21T02:28:51;8.60;99.90
11079;DHT22;5592;49.234;7.268;2023-11-21T02:31:18;8.60;99.90
11079;DHT22;5592;49.234;7.268;2023-11-21T02:33:44;8.60;99.90
11079;DHT22;5592;49.234;7.268;2023-11-21T02:36:10;8.50;99.90
11079;DHT22;5592;49.234;7.268;2023-11-21T02:38:35;8.50;99.90
11079;DHT22;5592;49.234;7.268;2023-11-21T02:41:01;8.50;99.90
11079;DHT22;5592;49.234;7.268;2023-11-21T02:43:26;8.50;99.90
11079;DHT22;5592;49.234;7.268;2023-11-21T02:45:52;8.50;99.90
11079;DHT22;5592;49.234;7.268;2023-11-21T02:48:17;8.50;99.90
11079;DHT22;5592;49.234;7.268;2023-11-21T02:50:43;8.50;99.90
11079;DHT22;5592;49.234;7.268;2023-11-21T02:53:09;8.50;99.90
11079;DHT22;5592;49.234;7.268;2023-11-21T02:55:36;8.50;99.90
11079;DHT22;5592;49.234;7.268;2023-11-21T02:58:02;8.50;99.90
11079;DHT22;5592;49.234;7.268;2023-11-21T03:00:29;8.50;99.90
11079;DHT22;5592;49.234;7.268;2023-11-21T03:02:56;8.50;99.90
11079;DHT22;5592;49.234;7.268;2023-11-21T03:05:21;8.60;99.90
11079;DHT22;5592;49.234;7.268;2023-11-21T03:07:47;8.50;99.90
11079;DHT22;5592;49.234;7.268;2023-11-21T03:10:12;8.50;99.90
11079;DHT22;5592;49.234;7.268;2023-11-21T03:12:38;8.50;99.90
11079;DHT22;5592;49.234;7.268;2023-11-21T03:15:08;8.50;99.90
11079;DHT22;5592;49.234;7.268;2023-11-21T03:17:34;8.50;99.90
11079;DHT22;5592;49.234;7.268;2023-11-21T03:20:00;8.50;99.90
11079;DHT22;5592;49.234;7.268;2023-11-21T03:22:26;8.50;99.90
11079;DHT22;5592;49.234;7.268;2023-11-21T03:24:52;8.50;99.90
11079;DHT22;5592;49.234;7.268;2023-11-21T03:27:18;8.50;99.90
11079;DHT22;5592;49.234;7.268;2023-11-21T03:29:44;8.50;99.90
11079;DHT22;5592;49.234;7.268;2023-11-21T03:32:10;8.50;99.90
11079;DHT22;5592;49.234;7.268;2023-11-21T03:34:56;8.50;99.90
11079;DHT22;5592;49.234;7.268;2023-11-21T03:37:23;8.50;99.90
11079;DHT22;5592;49.234;7.268;2023-11-21T03:39:49;8.50;99.90
11079;DHT22;5592;49.234;7.268;2023-11-21T03:42:15;8.50;99.90
11079;DHT22;5592;49.234;7.268;2023-11-21T03:44:40;8.50;99.90
11079;DHT22;5592;49.234;7.268;2023-11-21T03:47:06;8.50;99.90
11079;DHT22;5592;49.234;7.268;2023-11-21T03:49:31;8.50;99.90
11079;DHT22;5592;49.234;7.268;2023-11-21T03:51:57;8.50;99.90
11079;DHT22;5592;49.234;7.268;2023-11-21T03:54:22;8.50;99.90
11079;DHT22;5592;49.234;7.268;2023-11-21T03:56:49;8.50;99.90
11079;DHT22;5592;49.234;7.268;2023-11-21T03:59:14;8.50;99.90
11079;DHT22;5592;49.234;7.268;2023-11-21T04:01:40;8.50;99.90
11079;DHT22;5592;49.234;7.268;2023-11-21T04:04:05;8.50;99.90
11079;DHT22;5592;49.234;7.268;2023-11-21T04:06:31;8.50;99.90
11079;DHT22;5592;49.234;7.268;2023-11-21T04:08:58;8.50;99.90
11079;DHT22;5592;49.234;7.268;2023-11-21T04:11:23;8.50;99.90
11079;DHT22;5592;49.234;7.268;2023-11-21T04:13:49;8.50;99.90
11079;DHT22;5592;49.234;7.268;2023-11-21T04:16:15;8.50;99.90
11079;DHT22;5592;49.234;7.268;2023-11-21T04:18:40;8.50;99.90
11079;DHT22;5592;49.234;7.268;2023-11-21T04:21:06;8.50;99.90
11079;DHT22;5592;49.234;7.268;2023-11-21T04:23:33;8.50;99.90
11079;DHT22;5592;49.234;7.268;2023-11-21T04:25:58;8.60;99.90
11079;DHT22;5592;49.234;7.268;2023-11-21T04:28:24;8.60;99.90
11079;DHT22;5592;49.234;7.268;2023-11-21T04:30:50;8.60;99.90
11079;DHT22;5592;49.234;7.268;2023-11-21T04:33:15;8.60;99.90
11079;DHT22;5592;49.234;7.268;2023-11-21T04:35:41;8.60;99.90
11079;DHT22;5592;49.234;7.268;2023-11-21T04:38:07;8.60;99.90
11079;DHT22;5592;49.234;7.268;2023-11-21T04:40:33;8.60;99.90
11079;DHT22;5592;49.234;7.268;2023-11-21T04:42:58;8.60;99.90
11079;DHT22;5592;49.234;7.268;2023-11-21T04:45:24;8.60;99.90
11079;DHT22;5592;49.234;7.268;2023-11-21T04:47:49;8.60;99.90
11079;DHT22;5592;49.234;7.268;2023-11-21T04:50:15;8.60;99.90
11079;DHT22;5592;49.234;7.268;2023-11-21T04:52:40;8.60;99.90
11079;DHT22;5592;49.234;7.268;2023-11-21T04:55:06;8.60;99.90
11079;DHT22;5592;49.234;7.268;2023-11-21T04:57:35;8.60;99.90
11079;DHT22;5592;49.234;7.268;2023-11-21T05:00:01;8.70;99.90
11079;DHT22;5592;49.234;7.268;2023-11-21T05:02:26;8.70;99.90
11079;DHT22;5592;49.234;7.268;2023-11-21T05:04:52;8.60;99.90
11079;DHT22;5592;49.234;7.268;2023-11-21T05:07:18;8.60;99.90
11079;DHT22;5592;49.234;7.268;2023-11-21T05:09:44;8.60;99.90
11079;DHT22;5592;49.234;7.268;2023-11-21T05:12:14;8.70;99.90
11079;DHT22;5592;49.234;7.268;2023-11-21T05:14:40;8.80;99.90
11079;DHT22;5592;49.234;7.268;2023-11-21T05:17:05;8.70;99.90
11079;DHT22;5592;49.234;7.268;2023-11-21T05:19:31;8.70;99.90
11079;DHT22;5592;49.234;7.268;2023-11-21T05:21:58;8.70;99.90
11079;DHT22;5592;49.234;7.268;2023-11-21T05:24:26;8.70;99.90
11079;DHT22;5592;49.234;7.268;2023-11-21T05:26:51;8.70;99.90
11079;DHT22;5592;49.234;7.268;2023-11-21T05:29:18;8.60;99.90
11079;DHT22;5592;49.234;7.268;2023-11-21T05:31:43;8.60;99.90
11079;DHT22;5592;49.234;7.268;2023-11-21T05:34:09;8.60;99.90
11079;DHT22;5592;49.234;7.268;2023-11-21T05:36:34;8.50;99.90
11079;DHT22;5592;49.234;7.268;2023-11-21T05:39:00;8.50;99.90
11079;DHT22;5592;49.234;7.268;2023-11-21T05:41:26;8.50;99.90
11079;DHT22;5592;49.234;7.268;2023-11-21T05:43:51;8.50;99.90
11079;DHT22;5592;49.234;7.268;2023-11-21T05:46:19;8.40;99.90
11079;DHT22;5592;49.234;7.268;2023-11-21T05:48:44;8.50;99.90
11079;DHT22;5592;49.234;7.268;2023-11-21T05:51:10;8.40;99.90
11079;DHT22;5592;49.234;7.268;2023-11-21T05:53:38;8.40;99.90
11079;DHT22;5592;49.234;7.268;2023-11-21T05:56:03;8.30;99.90
11079;DHT22;5592;49.234;7.268;2023-11-21T05:58:29;8.30;99.90
11079;DHT22;5592;49.234;7.268;2023-11-21T06:00:54;8.20;99.90
11079;DHT22;5592;49.234;7.268;2023-11-21T06:03:20;8.20;99.90
11079;DHT22;5592;49.234;7.268;2023-11-21T06:05:45;8.20;99.90
11079;DHT22;5592;49.234;7.268;2023-11-21T06:08:11;8.10;99.90
11079;DHT22;5592;49.234;7.268;2023-11-21T06:10:37;8.20;99.90
11079;DHT22;5592;49.234;7.268;2023-11-21T06:13:02;8.10;99.90
11079;DHT22;5592;49.234;7.268;2023-11-21T06:15:29;8.10;99.90
11079;DHT22;5592;49.234;7.268;2023-11-21T06:17:54;8.10;99.90
11079;DHT22;5592;49.234;7.268;2023-11-21T06:20:21;8.10;99.90
11079;DHT22;5592;49.234;7.268;2023-11-21T06:22:49;8.10;99.90
11079;DHT22;5592;49.234;7.268;2023-11-21T06:25:17;8.10;99.90
11079;DHT22;5592;49.234;7.268;2023-11-21T06:30:14;8.10;99.90
11079;DHT22;5592;49.234;7.268;2023-11-21T06:32:41;8.10;99.90
11079;DHT22;5592;49.234;7.268;2023-11-21T06:35:07;8.00;99.90
11079;DHT22;5592;49.234;7.268;2023-11-21T06:37:34;8.00;99.90
11079;DHT22;5592;49.234;7.268;2023-11-21T06:40:00;8.00;99.90
11079;DHT22;5592;49.234;7.268;2023-11-21T06:42:26;7.90;99.90
11079;DHT22;5592;49.234;7.268;2023-11-21T06:44:53;7.90;99.90
11079;DHT22;5592;49.234;7.268;2023-11-21T06:47:19;7.90;99.90
11079;DHT22;5592;49.234;7.268;2023-11-21T06:49:50;8.00;99.90
11079;DHT22;5592;49.234;7.268;2023-11-21T06:52:16;7.90;99.90
11079;DHT22;5592;49.234;7.268;2023-11-21T06:54:42;8.00;99.90
11079;DHT22;5592;49.234;7.268;2023-11-21T06:57:09;7.90;99.90
11079;DHT22;5592;49.234;7.268;2023-11-21T06:59:35;8.00;99.90
11079;DHT22;5592;49.234;7.268;2023-11-21T07:02:01;7.90;99.90
11079;DHT22;5592;49.234;7.268;2023-11-21T07:04:28;8.00;99.90
11079;DHT22;5592;49.234;7.268;2023-11-21T07:06:54;8.00;99.90
11079;DHT22;5592;49.234;7.268;2023-11-21T07:09:20;7.90;99.90
11079;DHT22;5592;49.234;7.268;2023-11-21T07:11:54;8.00;99.90
11079;DHT22;5592;49.234;7.268;2023-11-21T07:14:25;8.00;99.90
11079;DHT22;5592;49.234;7.268;2023-11-21T07:16:51;8.00;99.90
11079;DHT22;5592;49.234;7.268;2023-11-21T07:19:18;8.00;99.90
11079;DHT22;5592;49.234;7.268;2023-11-21T07:21:43;8.00;99.90
11079;DHT22;5592;49.234;7.268;2023-11-21T07:24:09;8.00;99.90
11079;DHT22;5592;49.234;7.268;2023-11-21T07:26:36;8.00;99.90
11079;DHT22;5592;49.234;7.268;2023-11-21T07:29:02;8.10;99.90
11079;DHT22;5592;49.234;7.268;2023-11-21T07:31:30;8.10;99.90
11079;DHT22;5592;49.234;7.268;2023-11-21T07:33:59;8.10;99.90
11079;DHT22;5592;49.234;7.268;2023-11-21T07:36:28;8.20;99.90
11079;DHT22;5592;49.234;7.268;2023-11-21T07:38:55;8.20;99.90
11079;DHT22;5592;49.234;7.268;2023-11-21T07:41:21;8.30;99.90
11079;DHT22;5592;49.234;7.268;2023-11-21T07:43:52;8.30;99.90
11079;DHT22;5592;49.234;7.268;2023-11-21T07:46:17;8.40;99.90
11079;DHT22;5592;49.234;7.268;2023-11-21T07:48:43;8.40;99.90
11079;DHT22;5592;49.234;7.268;2023-11-21T07:51:10;8.40;99.90
11079;DHT22;5592;49.234;7.268;2023-11-21T07:53:35;8.50;99.90
11079;DHT22;5592;49.234;7.268;2023-11-21T07:56:06;8.50;99.90
11079;DHT22;5592;49.234;7.268;2023-11-21T07:58:34;8.60;99.90
11079;DHT22;5592;49.234;7.268;2023-11-21T08:01:03;8.60;99.90
11079;DHT22;5592;49.234;7.268;2023-11-21T08:03:31;8.60;99.90
11079;DHT22;5592;49.234;7.268;2023-11-21T08:05:57;8.60;99.90
11079;DHT22;5592;49.234;7.268;2023-11-21T08:08:25;8.70;99.90
11079;DHT22;5592;49.234;7.268;2023-11-21T08:10:55;8.70;99.90
11079;DHT22;5592;49.234;7.268;2023-11-21T08:13:27;8.80;99.90
11079;DHT22;5592;49.234;7.268;2023-11-21T08:15:58;8.80;99.90
11079;DHT22;5592;49.234;7.268;2023-11-21T08:18:29;8.80;99.90
11079;DHT22;5592;49.234;7.268;2023-11-21T08:20:55;8.80;99.90
11079;DHT22;5592;49.234;7.268;2023-11-21T08:23:21;8.80;99.90
11079;DHT22;5592;49.234;7.268;2023-11-21T08:25:52;8.90;99.90
11079;DHT22;5592;49.234;7.268;2023-11-21T08:28:19;9.00;99.90
11079;DHT22;5592;49.234;7.268;2023-11-21T08:30:48;9.00;99.90
11079;DHT22;5592;49.234;7.268;2023-11-21T08:33:15;9.10;99.90
11079;DHT22;5592;49.234;7.268;2023-11-21T08:35:42;9.20;99.90
11079;DHT22;5592;49.234;7.268;2023-11-21T08:38:17;9.20;99.90
11079;DHT22;5592;49.234;7.268;2023-11-21T08:40:44;9.30;99.90
11079;DHT22;5592;49.234;7.268;2023-11-21T08:43:10;9.40;99.90
11079;DHT22;5592;49.234;7.268;2023-11-21T08:45:37;9.40;99.90
11079;DHT22;5592;49.234;7.268;2023-11-21T08:48:03;9.50;99.90
11079;DHT22;5592;49.234;7.268;2023-11-21T08:50:30;9.60;99.90
11079;DHT22;5592;49.234;7.268;2023-11-21T08:55:44;9.80;99.90
11079;DHT22;5592;49.234;7.268;2023-11-21T08:58:10;9.80;99.90
11079;DHT22;5592;49.234;7.268;2023-11-21T09:00:39;10.00;99.90
11079;DHT22;5592;49.234;7.268;2023-11-21T09:03:05;10.10;99.90
11079;DHT22;5592;49.234;7.268;2023-11-21T09:05:37;10.20;99.90
11079;DHT22;5592;49.234;7.268;2023-11-21T09:08:13;10.30;99.90
11079;DHT22;5592;49.234;7.268;2023-11-21T09:10:39;10.40;99.90
11079;DHT22;5592;49.234;7.268;2023-11-21T09:13:08;10.50;99.90
11079;DHT22;5592;49.234;7.268;2023-11-21T09:15:36;10.70;99.90
11079;DHT22;5592;49.234;7.268;2023-11-21T09:18:02;10.80;99.90
11079;DHT22;5592;49.234;7.268;2023-11-21T09:20:29;10.90;99.90
11079;DHT22;5592;49.234;7.268;2023-11-21T09:22:56;11.00;99.90
11079;DHT22;5592;49.234;7.268;2023-11-21T09:25:21;11.00;99.90
11079;DHT22;5592;49.234;7.268;2023-11-21T09:27:48;11.00;99.90
11079;DHT22;5592;49.234;7.268;2023-11-21T09:30:13;11.00;99.90
11079;DHT22;5592;49.234;7.268;2023-11-21T09:32:44;11.00;99.90
11079;DHT22;5592;49.234;7.268;2023-11-21T09:35:13;11.00;99.90
11079;DHT22;5592;49.234;7.268;2023-11-21T09:37:39;11.00;99.90
11079;DHT22;5592;49.234;7.268;2023-11-21T09:40:06;11.00;99.90
11079;DHT22;5592;49.234;7.268;2023-11-21T09:42:58;11.10;99.90
11079;DHT22;5592;49.234;7.268;2023-11-21T09:45:26;11.20;99.90
11079;DHT22;5592;49.234;7.268;2023-11-21T09:47:54;11.20;99.90
11079;DHT22;5592;49.234;7.268;2023-11-21T09:50:24;11.30;99.90
11079;DHT22;5592;49.234;7.268;2023-11-21T09:55:50;11.60;99.90
11079;DHT22;5592;49.234;7.268;2023-11-21T09:58:17;11.70;99.90
11079;DHT22;5592;49.234;7.268;2023-11-21T10:00:46;11.80;99.90
11079;DHT22;5592;49.234;7.268;2023-11-21T10:03:12;11.70;99.90
11079;DHT22;5592;49.234;7.268;2023-11-21T10:05:39;11.50;99.90
11079;DHT22;5592;49.234;7.268;2023-11-21T10:08:09;11.50;99.90
11079;DHT22;5592;49.234;7.268;2023-11-21T10:10:43;11.60;99.90
11079;DHT22;5592;49.234;7.268;2023-11-21T10:13:18;11.60;99.90
11079;DHT22;5592;49.234;7.268;2023-11-21T10:15:51;11.50;99.90
11079;DHT22;5592;49.234;7.268;2023-11-21T10:18:17;11.30;99.90
11079;DHT22;5592;49.234;7.268;2023-11-21T10:20:44;11.20;99.90
11079;DHT22;5592;49.234;7.268;2023-11-21T10:23:12;11.00;99.90
11079;DHT22;5592;49.234;7.268;2023-11-21T10:25:38;10.90;99.90
11079;DHT22;5592;49.234;7.268;2023-11-21T10:28:04;10.90;99.90
11079;DHT22;5592;49.234;7.268;2023-11-21T10:30:34;10.80;99.90
11079;DHT22;5592;49.234;7.268;2023-11-21T10:33:03;10.70;99.90
11079;DHT22;5592;49.234;7.268;2023-11-21T10:35:48;10.60;99.90
11079;DHT22;5592;49.234;7.268;2023-11-21T10:38:21;10.60;99.90
11079;DHT22;5592;49.234;7.268;2023-11-21T10:40:51;10.60;99.90
11079;DHT22;5592;49.234;7.268;2023-11-21T10:43:20;10.60;99.90
11079;DHT22;5592;49.234;7.268;2023-11-21T10:45:49;10.70;99.90
11079;DHT22;5592;49.234;7.268;2023-11-21T10:48:15;10.80;99.90
11079;DHT22;5592;49.234;7.268;2023-11-21T10:50:42;11.00;99.90
11079;DHT22;5592;49.234;7.268;2023-11-21T10:53:08;11.00;99.90
11079;DHT22;5592;49.234;7.268;2023-11-21T10:55:37;10.90;99.90
11079;DHT22;5592;49.234;7.268;2023-11-21T10:58:03;11.00;99.90
11079;DHT22;5592;49.234;7.268;2023-11-21T11:00:33;11.10;99.90
11079;DHT22;5592;49.234;7.268;2023-11-21T11:03:02;11.20;99.90
11079;DHT22;5592;49.234;7.268;2023-11-21T11:05:33;11.30;99.90
11079;DHT22;5592;49.234;7.268;2023-11-21T11:08:08;11.40;99.90
11079;DHT22;5592;49.234;7.268;2023-11-21T11:10:36;11.50;99.90
11079;DHT22;5592;49.234;7.268;2023-11-21T11:13:03;11.60;99.90
11079;DHT22;5592;49.234;7.268;2023-11-21T11:15:30;11.70;99.90
11079;DHT22;5592;49.234;7.268;2023-11-21T11:17:56;11.60;99.90
11079;DHT22;5592;49.234;7.268;2023-11-21T11:20:31;11.50;99.90
11079;DHT22;5592;49.234;7.268;2023-11-21T11:23:29;11.60;99.90
11079;DHT22;5592;49.234;7.268;2023-11-21T11:29:47;11.60;99.90
11079;DHT22;5592;49.234;7.268;2023-11-21T11:32:40;11.50;99.90
11079;DHT22;5592;49.234;7.268;2023-11-21T11:35:33;11.40;99.90
11079;DHT22;5592;49.234;7.268;2023-11-21T11:37:59;11.50;99.90
11079;DHT22;5592;49.234;7.268;2023-11-21T11:40:47;11.50;99.90
11079;DHT22;5592;49.234;7.268;2023-11-21T11:43:29;11.50;99.90
11079;DHT22;5592;49.234;7.268;2023-11-21T11:46:03;11.60;99.90
11079;DHT22;5592;49.234;7.268;2023-11-21T11:48:40;11.80;99.90
11079;DHT22;5592;49.234;7.268;2023-11-21T11:51:10;12.00;99.90
11079;DHT22;5592;49.234;7.268;2023-11-21T11:53:39;12.20;99.90
11079;DHT22;5592;49.234;7.268;2023-11-21T11:56:35;12.40;99.90
11079;DHT22;5592;49.234;7.268;2023-11-21T11:59:04;12.60;99.90
11079;DHT22;5592;49.234;7.268;2023-11-21T12:01:35;12.70;99.90
11079;DHT22;5592;49.234;7.268;2023-11-21T12:07:00;12.70;99.90
11079;DHT22;5592;49.234;7.268;2023-11-21T12:09:32;12.70;99.90
11079;DHT22;5592;49.234;7.268;2023-11-21T12:11:58;12.70;99.90
11079;DHT22;5592;49.234;7.268;2023-11-21T12:14:24;12.70;99.90
11079;DHT22;5592;49.234;7.268;2023-11-21T12:16:49;12.60;99.90
11079;DHT22;5592;49.234;7.268;2023-11-21T12:19:16;12.60;99.90
11079;DHT22;5592;49.234;7.268;2023-11-21T12:21:42;12.50;99.90
11079;DHT22;5592;49.234;7.268;2023-11-21T12:24:09;12.40;99.90
11079;DHT22;5592;49.234;7.268;2023-11-21T12:26:35;12.30;99.90
11079;DHT22;5592;49.234;7.268;2023-11-21T12:29:03;12.30;99.90
11079;DHT22;5592;49.234;7.268;2023-11-21T12:31:31;12.40;99.90
11079;DHT22;5592;49.234;7.268;2023-11-21T12:33:59;12.40;99.90
11079;DHT22;5592;49.234;7.268;2023-11-21T12:36:37;12.40;99.90
11079;DHT22;5592;49.234;7.268;2023-11-21T12:39:12;12.40;99.90
11079;DHT22;5592;49.234;7.268;2023-11-21T12:41:39;12.40;99.90
11079;DHT22;5592;49.234;7.268;2023-11-21T12:44:12;12.50;99.90
11079;DHT22;5592;49.234;7.268;2023-11-21T12:46:42;12.60;99.90
11079;DHT22;5592;49.234;7.268;2023-11-21T12:49:07;12.60;99.90
11079;DHT22;5592;49.234;7.268;2023-11-21T12:51:33;12.40;99.90
11079;DHT22;5592;49.234;7.268;2023-11-21T12:53:59;12.30;99.90
11079;DHT22;5592;49.234;7.268;2023-11-21T12:56:25;12.20;99.90
11079;DHT22;5592;49.234;7.268;2023-11-21T12:58:50;12.20;99.90
11079;DHT22;5592;49.234;7.268;2023-11-21T13:01:19;12.20;99.90
11079;DHT22;5592;49.234;7.268;2023-11-21T13:03:50;12.00;99.90
11079;DHT22;5592;49.234;7.268;2023-11-21T13:06:25;11.80;99.90
11079;DHT22;5592;49.234;7.268;2023-11-21T13:08:51;11.70;99.90
11079;DHT22;5592;49.234;7.268;2023-11-21T13:11:17;11.50;99.90
11079;DHT22;5592;49.234;7.268;2023-11-21T13:13:43;11.40;99.90
11079;DHT22;5592;49.234;7.268;2023-11-21T13:16:09;11.30;99.90
11079;DHT22;5592;49.234;7.268;2023-11-21T13:18:35;11.20;99.90
11079;DHT22;5592;49.234;7.268;2023-11-21T13:21:03;11.00;99.90
11079;DHT22;5592;49.234;7.268;2023-11-21T13:23:35;11.00;99.90
11079;DHT22;5592;49.234;7.268;2023-11-21T13:26:01;10.90;99.90
11079;DHT22;5592;49.234;7.268;2023-11-21T13:28:29;10.80;99.90
11079;DHT22;5592;49.234;7.268;2023-11-21T13:30:58;10.70;99.90
11079;DHT22;5592;49.234;7.268;2023-11-21T13:33:30;10.70;99.90
11079;DHT22;5592;49.234;7.268;2023-11-21T13:35:57;10.70;99.90
11079;DHT22;5592;49.234;7.268;2023-11-21T13:38:24;10.60;99.90
11079;DHT22;5592;49.234;7.268;2023-11-21T13:40:58;10.50;99.90
11079;DHT22;5592;49.234;7.268;2023-11-21T13:43:26;10.50;99.90
11079;DHT22;5592;49.234;7.268;2023-11-21T13:45:54;10.50;99.90
11079;DHT22;5592;49.234;7.268;2023-11-21T13:48:29;10.50;99.90
11079;DHT22;5592;49.234;7.268;2023-11-21T13:51:06;10.50;99.90
11079;DHT22;5592;49.234;7.268;2023-11-21T13:53:45;10.50;99.90
11079;DHT22;5592;49.234;7.268;2023-11-21T13:56:16;10.40;99.90
11079;DHT22;5592;49.234;7.268;2023-11-21T13:58:45;10.40;99.90
11079;DHT22;5592;49.234;7.268;2023-11-21T14:01:22;10.50;99.90
11079;DHT22;5592;49.234;7.268;2023-11-21T14:04:04;10.50;99.90
11079;DHT22;5592;49.234;7.268;2023-11-21T14:06:50;10.50;99.90
11079;DHT22;5592;49.234;7.268;2023-11-21T14:09:19;10.50;99.90
11079;DHT22;5592;49.234;7.268;2023-11-21T14:11:54;10.50;99.90
11079;DHT22;5592;49.234;7.268;2023-11-21T14:14:23;10.50;99.90
11079;DHT22;5592;49.234;7.268;2023-11-21T14:16:50;10.50;99.90
11079;DHT22;5592;49.234;7.268;2023-11-21T14:19:16;10.50;99.90
11079;DHT22;5592;49.234;7.268;2023-11-21T14:21:45;10.50;99.90
11079;DHT22;5592;49.234;7.268;2023-11-21T14:24:14;10.40;99.90
11079;DHT22;5592;49.234;7.268;2023-11-21T14:26:43;10.40;99.90
11079;DHT22;5592;49.234;7.268;2023-11-21T14:29:10;10.40;99.90
11079;DHT22;5592;49.234;7.268;2023-11-21T14:31:42;10.40;99.90
11079;DHT22;5592;49.234;7.268;2023-11-21T14:34:10;10.50;99.90
11079;DHT22;5592;49.234;7.268;2023-11-21T14:36:37;10.50;99.90
11079;DHT22;5592;49.234;7.268;2023-11-21T14:39:08;10.50;99.90
11079;DHT22;5592;49.234;7.268;2023-11-21T14:41:41;10.50;99.90
11079;DHT22;5592;49.234;7.268;2023-11-21T14:44:08;10.50;99.90
11079;DHT22;5592;49.234;7.268;2023-11-21T14:46:37;10.50;99.90
11079;DHT22;5592;49.234;7.268;2023-11-21T14:49:05;10.40;99.90
11079;DHT22;5592;49.234;7.268;2023-11-21T14:51:48;10.40;99.90
11079;DHT22;5592;49.234;7.268;2023-11-21T14:54:34;10.40;99.90
11079;DHT22;5592;49.234;7.268;2023-11-21T14:57:10;10.40;99.90
11079;DHT22;5592;49.234;7.268;2023-11-21T14:59:45;10.40;99.90
11079;DHT22;5592;49.234;7.268;2023-11-21T15:02:20;10.40;99.90
11079;DHT22;5592;49.234;7.268;2023-11-21T15:04:48;10.30;99.90
11079;DHT22;5592;49.234;7.268;2023-11-21T15:07:17;10.20;99.90
11079;DHT22;5592;49.234;7.268;2023-11-21T15:09:43;10.20;99.90
11079;DHT22;5592;49.234;7.268;2023-11-21T15:12:12;10.10;99.90
11079;DHT22;5592;49.234;7.268;2023-11-21T15:14:50;10.10;99.90
11079;DHT22;5592;49.234;7.268;2023-11-21T15:17:20;10.10;99.90
11079;DHT22;5592;49.234;7.268;2023-11-21T15:19:49;10.10;99.90
11079;DHT22;5592;49.234;7.268;2023-11-21T15:22:16;10.00;99.90
11079;DHT22;5592;49.234;7.268;2023-11-21T15:24:45;10.00;99.90
11079;DHT22;5592;49.234;7.268;2023-11-21T15:27:13;9.90;99.90
11079;DHT22;5592;49.234;7.268;2023-11-21T15:29:39;9.90;99.90
11079;DHT22;5592;49.234;7.268;2023-11-21T15:32:06;9.90;99.90
11079;DHT22;5592;49.234;7.268;2023-11-21T15:34:32;9.80;99.90
11079;DHT22;5592;49.234;7.268;2023-11-21T15:36:58;9.70;99.90
11079;DHT22;5592;49.234;7.268;2023-11-21T15:39:25;9.70;99.90
11079;DHT22;5592;49.234;7.268;2023-11-21T15:41:55;9.60;99.90
11079;DHT22;5592;49.234;7.268;2023-11-21T15:44:20;9.60;99.90
11079;DHT22;5592;49.234;7.268;2023-11-21T15:46:46;9.50;99.90
11079;DHT22;5592;49.234;7.268;2023-11-21T15:49:14;9.50;99.90
11079;DHT22;5592;49.234;7.268;2023-11-21T15:51:43;9.50;99.90
11079;DHT22;5592;49.234;7.268;2023-11-21T15:54:21;9.50;99.90
11079;DHT22;5592;49.234;7.268;2023-11-21T15:56:47;9.50;99.90
11079;DHT22;5592;49.234;7.268;2023-11-21T15:59:14;9.50;99.90
11079;DHT22;5592;49.234;7.268;2023-11-21T16:01:42;9.50;99.90
11079;DHT22;5592;49.234;7.268;2023-11-21T16:04:11;9.50;99.90
11079;DHT22;5592;49.234;7.268;2023-11-21T16:06:39;9.40;99.90
11079;DHT22;5592;49.234;7.268;2023-11-21T16:09:05;9.40;99.90
11079;DHT22;5592;49.234;7.268;2023-11-21T16:11:31;9.40;99.90
11079;DHT22;5592;49.234;7.268;2023-11-21T16:13:59;9.40;99.90
11079;DHT22;5592;49.234;7.268;2023-11-21T16:16:24;9.40;99.90